createdAt,value
2023-04-04T00:00:17.740Z,2.82
2023-04-04T00:02:44.356Z,2.74
2023-04-04T00:05:10.797Z,2.70
2023-04-04T00:07:37.200Z,2.66
2023-04-04T00:10:03.817Z,2.92
2023-04-04T00:12:30.283Z,2.70
2023-04-04T00:14:57.605Z,2.42
2023-04-04T00:17:24.213Z,2.56
2023-04-04T00:19:50.661Z,2.72
2023-04-04T00:22:18.133Z,2.80
2023-04-04T00:24:44.729Z,3.16
2023-04-04T00:27:13.317Z,2.71
2023-04-04T00:29:42.236Z,2.62
2023-04-04T00:32:11.244Z,2.44
2023-04-04T00:34:41.424Z,2.74
2023-04-04T00:37:07.972Z,2.58
2023-04-04T00:39:34.608Z,2.56
2023-04-04T00:42:01.898Z,2.44
2023-04-04T00:44:38.387Z,2.28
2023-04-04T00:47:04.840Z,2.32
2023-04-04T00:49:31.424Z,2.34
2023-04-04T00:52:00.392Z,2.63
2023-04-04T00:54:29.861Z,2.60
2023-04-04T00:56:56.510Z,2.64
2023-04-04T00:59:26.133Z,2.22
2023-04-04T01:01:52.755Z,2.47
2023-04-04T01:04:21.675Z,2.28
2023-04-04T01:06:48.929Z,2.43
2023-04-04T01:09:15.652Z,2.41
2023-04-04T01:11:45.628Z,2.44
2023-04-04T01:14:14.765Z,2.43
2023-04-04T01:16:41.742Z,2.79
2023-04-04T01:19:17.135Z,2.70
2023-04-04T01:21:45.574Z,2.75
2023-04-04T01:24:16.536Z,2.27
2023-04-04T01:26:42.943Z,2.36
2023-04-04T01:29:09.512Z,2.40
2023-04-04T01:31:51.132Z,2.34
2023-04-04T01:34:31.945Z,2.30
2023-04-04T01:37:06.694Z,2.42
2023-04-04T01:39:40.172Z,2.17
2023-04-04T01:42:07.709Z,2.30
2023-04-04T01:44:36.688Z,2.33
2023-04-04T01:47:07.030Z,2.08
2023-04-04T01:49:33.700Z,2.36
2023-04-04T01:52:03.716Z,2.36
2023-04-04T01:54:30.594Z,2.36
2023-04-04T01:56:58.000Z,2.14
2023-04-04T01:59:29.278Z,2.05
2023-04-04T02:01:58.288Z,1.73
2023-04-04T02:04:27.365Z,1.93
2023-04-04T02:06:55.961Z,2.37
2023-04-04T02:09:22.497Z,1.97
2023-04-04T02:11:49.612Z,2.15
2023-04-04T02:14:16.003Z,2.16
2023-04-04T02:16:44.055Z,1.97
2023-04-04T02:19:13.146Z,2.18
2023-04-04T02:21:41.841Z,2.17
2023-04-04T02:24:08.359Z,2.20
2023-04-04T02:26:34.714Z,2.06
2023-04-04T02:29:01.151Z,1.99
2023-04-04T02:31:27.748Z,2.22
2023-04-04T02:33:54.357Z,2.19
2023-04-04T02:36:21.181Z,2.09
2023-04-04T02:38:49.999Z,2.28
2023-04-04T02:41:16.679Z,2.43
2023-04-04T02:43:43.276Z,2.52
2023-04-04T02:46:20.594Z,2.35
2023-04-04T02:48:51.577Z,2.44
2023-04-04T02:51:18.442Z,2.51
2023-04-04T02:53:45.104Z,2.15
2023-04-04T02:56:12.178Z,2.53
2023-04-04T02:58:43.351Z,2.38
2023-04-04T03:01:09.823Z,2.42
2023-04-04T03:03:36.577Z,2.24
2023-04-04T03:06:03.503Z,2.38
2023-04-04T03:08:29.970Z,2.32
2023-04-04T03:10:56.337Z,2.44
2023-04-04T03:13:22.734Z,2.48
2023-04-04T03:15:49.570Z,2.28
2023-04-04T03:18:16.616Z,2.13
2023-04-04T03:20:46.089Z,1.75
2023-04-04T03:23:12.562Z,1.79
2023-04-04T03:25:38.940Z,1.59
2023-04-04T03:28:09.919Z,1.90
2023-04-04T03:30:39.235Z,1.58
2023-04-04T03:33:07.553Z,1.84
2023-04-04T03:35:38.471Z,1.78
2023-04-04T03:38:05.676Z,2.22
2023-04-04T03:40:32.465Z,1.80
2023-04-04T03:42:58.960Z,1.78
2023-04-04T03:45:27.797Z,1.74
2023-04-04T03:47:56.609Z,1.80
2023-04-04T03:50:23.078Z,1.83
2023-04-04T03:52:49.616Z,1.65
2023-04-04T03:55:16.278Z,1.67
2023-04-04T03:57:43.172Z,1.59
2023-04-04T04:00:13.204Z,1.94
2023-04-04T04:02:40.510Z,1.79
2023-04-04T04:05:09.816Z,1.67
2023-04-04T04:07:36.381Z,1.69
2023-04-04T04:10:03.325Z,1.77
2023-04-04T04:12:29.886Z,1.75
2023-04-04T04:14:56.290Z,1.84
2023-04-04T04:17:22.963Z,1.93
2023-04-04T04:19:49.501Z,1.83
2023-04-04T04:22:21.649Z,1.91
2023-04-04T04:24:48.012Z,1.78
2023-04-04T04:27:14.419Z,1.83
2023-04-04T04:29:41.097Z,1.81
2023-04-04T04:32:07.624Z,1.93
2023-04-04T04:34:34.167Z,1.79
2023-04-04T04:37:00.575Z,1.79
2023-04-04T04:39:27.197Z,1.69
2023-04-04T04:41:55.828Z,1.87
2023-04-04T04:44:22.286Z,1.62
2023-04-04T04:46:48.971Z,1.89
2023-04-04T04:49:15.690Z,1.88
2023-04-04T04:51:42.905Z,1.75
2023-04-04T04:54:09.727Z,1.63
2023-04-04T04:56:37.603Z,1.38
2023-04-04T04:59:04.297Z,1.42
2023-04-04T05:01:35.837Z,1.62
2023-04-04T05:04:02.404Z,1.77
2023-04-04T05:06:28.843Z,1.45
2023-04-04T05:08:55.392Z,1.64
2023-04-04T05:11:21.965Z,1.77
2023-04-04T05:13:50.760Z,1.76
2023-04-04T05:16:17.846Z,1.93
2023-04-04T05:18:44.404Z,1.80
2023-04-04T05:21:11.090Z,1.90
2023-04-04T05:23:37.622Z,1.84
2023-04-04T05:26:04.209Z,1.94
2023-04-04T05:28:30.708Z,2.00
2023-04-04T05:30:57.548Z,1.98
2023-04-04T05:33:25.067Z,2.14
2023-04-04T05:35:51.884Z,2.25
2023-04-04T05:38:18.560Z,1.99
2023-04-04T05:40:45.839Z,2.17
2023-04-04T05:43:12.515Z,2.08
2023-04-04T05:45:40.607Z,2.40
2023-04-04T05:48:08.242Z,2.28
2023-04-04T05:50:34.697Z,2.27
2023-04-04T05:53:01.092Z,2.49
2023-04-04T05:55:28.073Z,2.47
2023-04-04T05:57:54.562Z,2.38
2023-04-04T06:00:21.053Z,2.63
2023-04-04T06:02:47.752Z,2.25
2023-04-04T06:05:14.794Z,2.61
2023-04-04T06:07:43.878Z,2.79
2023-04-04T06:10:10.770Z,2.64
2023-04-04T06:12:37.096Z,2.77
2023-04-04T06:15:03.760Z,2.99
2023-04-04T06:17:32.205Z,3.01
2023-04-04T06:20:01.320Z,3.19
2023-04-04T06:22:27.690Z,3.35
2023-04-04T06:24:54.295Z,3.55
2023-04-04T06:27:23.503Z,3.87
2023-04-04T06:29:52.496Z,4.12
2023-04-04T06:32:22.441Z,4.42
2023-04-04T06:34:48.851Z,4.39
2023-04-04T06:37:17.780Z,4.88
2023-04-04T06:39:44.324Z,5.19
2023-04-04T06:42:12.389Z,4.97
2023-04-04T06:44:38.767Z,5.59
2023-04-04T06:47:05.453Z,5.70
2023-04-04T06:49:33.350Z,5.43
2023-04-04T06:52:02.547Z,6.03
2023-04-04T06:54:29.983Z,5.88
2023-04-04T06:56:56.422Z,5.65
2023-04-04T06:59:23.084Z,6.26
2023-04-04T07:01:51.969Z,6.18
2023-04-04T07:04:20.085Z,5.85
2023-04-04T07:06:46.769Z,6.26
2023-04-04T07:09:25.980Z,6.54
2023-04-04T07:11:54.932Z,6.09
2023-04-04T07:14:25.178Z,6.13
2023-04-04T07:16:52.346Z,6.06
2023-04-04T07:19:18.805Z,6.65
2023-04-04T07:21:45.282Z,7.06
2023-04-04T07:24:11.741Z,6.61
2023-04-04T07:26:38.122Z,7.21
2023-04-04T07:29:04.716Z,6.91
2023-04-04T07:31:33.236Z,6.99
2023-04-04T07:34:04.348Z,7.18
2023-04-04T07:36:31.599Z,7.53
2023-04-04T07:39:00.737Z,7.00
2023-04-04T07:41:29.810Z,7.24
2023-04-04T07:43:58.946Z,7.05
2023-04-04T07:46:27.475Z,7.02
2023-04-04T07:48:53.940Z,6.94
2023-04-04T07:51:29.259Z,6.26
2023-04-04T07:53:56.610Z,6.76
2023-04-04T07:56:23.440Z,7.02
2023-04-04T07:58:49.949Z,6.81
2023-04-04T08:01:16.529Z,7.02
2023-04-04T08:03:43.192Z,7.36
2023-04-04T08:06:09.682Z,6.87
2023-04-04T08:08:36.130Z,7.18
2023-04-04T08:11:02.554Z,7.43
2023-04-04T08:13:29.230Z,7.06
2023-04-04T08:15:55.639Z,7.52
2023-04-04T08:18:24.933Z,7.54
2023-04-04T08:20:51.359Z,7.30
2023-04-04T08:23:17.764Z,7.42
2023-04-04T08:25:45.964Z,7.64
2023-04-04T08:28:12.683Z,7.76
2023-04-04T08:30:39.612Z,7.03
2023-04-04T08:33:06.699Z,6.95
2023-04-04T08:35:33.464Z,7.40
2023-04-04T08:38:02.607Z,7.59
2023-04-04T08:40:32.257Z,7.62
2023-04-04T08:42:59.969Z,7.48
2023-04-04T08:45:33.248Z,7.45
2023-04-04T08:48:01.559Z,7.67
2023-04-04T08:50:34.593Z,7.55
2023-04-04T08:53:04.639Z,7.54
2023-04-04T08:55:31.147Z,7.02
2023-04-04T08:57:57.673Z,7.01
2023-04-04T09:00:26.684Z,6.69
2023-04-04T09:02:58.956Z,6.87
2023-04-04T09:05:26.117Z,6.89
2023-04-04T09:07:56.656Z,6.89
2023-04-04T09:10:23.452Z,7.44
2023-04-04T09:12:51.840Z,7.49
2023-04-04T09:15:19.538Z,7.32
2023-04-04T09:17:46.007Z,7.36
2023-04-04T09:20:48.786Z,7.50
2023-04-04T09:23:23.920Z,7.55
2023-04-04T09:26:03.820Z,7.48
2023-04-04T09:28:32.087Z,7.66
2023-04-04T09:31:01.910Z,7.61
2023-04-04T09:33:31.816Z,7.81
2023-04-04T09:36:04.845Z,7.53
2023-04-04T09:38:32.205Z,8.01
2023-04-04T09:40:58.868Z,8.23
2023-04-04T09:43:25.916Z,8.54
2023-04-04T09:45:58.182Z,8.57
2023-04-04T09:48:32.940Z,8.73
2023-04-04T09:50:59.689Z,8.82
2023-04-04T09:53:26.554Z,8.63
2023-04-04T09:55:57.120Z,8.14
2023-04-04T09:58:28.631Z,8.29
2023-04-04T10:01:09.343Z,8.61
2023-04-04T10:03:40.615Z,9.01
2023-04-04T10:06:12.718Z,8.91
2023-04-04T10:08:41.197Z,9.16
2023-04-04T10:11:11.109Z,8.80
2023-04-04T10:13:43.821Z,9.10
2023-04-04T10:16:13.190Z,9.05
2023-04-04T10:18:40.223Z,8.94
2023-04-04T10:23:38.948Z,9.52
2023-04-04T10:26:08.081Z,9.09
2023-04-04T10:28:34.799Z,9.23
2023-04-04T10:31:19.827Z,8.79
2023-04-04T10:33:58.535Z,8.86
2023-04-04T10:36:30.290Z,9.35
2023-04-04T10:39:15.417Z,9.27
2023-04-04T10:41:45.162Z,9.81
2023-04-04T10:44:24.114Z,9.11
2023-04-04T10:46:54.284Z,9.57
2023-04-04T10:49:21.561Z,9.39
2023-04-04T10:51:56.400Z,9.37
2023-04-04T10:54:25.453Z,9.62
2023-04-04T10:56:52.358Z,8.90
2023-04-04T10:59:18.910Z,9.21
2023-04-04T11:02:00.237Z,9.16
2023-04-04T11:04:46.914Z,9.58
2023-04-04T11:07:17.036Z,9.79
2023-04-04T11:09:56.652Z,9.03
2023-04-04T11:12:27.482Z,9.09
2023-04-04T11:15:04.266Z,9.57
2023-04-04T11:17:48.990Z,9.83
2023-04-04T11:20:17.596Z,9.68
2023-04-04T11:22:45.527Z,9.72
2023-04-04T11:25:36.202Z,9.52
2023-04-04T11:28:36.804Z,9.79
2023-04-04T11:31:18.627Z,9.76
2023-04-04T11:34:29.323Z,10.35
2023-04-04T11:36:55.975Z,10.09
2023-04-04T11:39:30.571Z,10.17
2023-04-04T11:42:00.908Z,10.18
2023-04-04T11:44:33.814Z,10.19
2023-04-04T11:47:06.567Z,10.26
2023-04-04T11:49:43.539Z,10.10
2023-04-04T11:52:12.646Z,10.33
2023-04-04T11:54:43.634Z,10.69
2023-04-04T11:57:18.807Z,10.80
2023-04-04T11:59:50.757Z,10.64
2023-04-04T12:02:23.710Z,9.68
2023-04-04T12:04:54.372Z,10.05
2023-04-04T12:07:20.814Z,9.91
2023-04-04T12:09:50.657Z,9.93
2023-04-04T12:12:19.909Z,10.32
2023-04-04T12:14:46.798Z,10.21
2023-04-04T12:17:15.371Z,10.64
2023-04-04T12:19:43.585Z,10.48
2023-04-04T12:22:12.446Z,10.71
2023-04-04T12:24:39.272Z,10.65
2023-04-04T12:27:06.494Z,10.59
2023-04-04T12:29:37.415Z,10.62
2023-04-04T12:32:05.148Z,10.37
2023-04-04T12:34:36.109Z,10.63
2023-04-04T12:37:02.900Z,10.82
2023-04-04T12:39:29.962Z,11.03
2023-04-04T12:42:02.551Z,10.87
2023-04-04T12:44:33.369Z,11.25
2023-04-04T12:47:02.978Z,11.18
2023-04-04T12:49:39.484Z,11.25
2023-04-04T12:52:08.841Z,11.06
2023-04-04T12:54:40.783Z,10.78
2023-04-04T12:57:08.223Z,10.69
2023-04-04T12:59:36.182Z,10.83
2023-04-04T13:02:07.259Z,10.98
2023-04-04T13:04:34.112Z,10.95
2023-04-04T13:07:02.020Z,11.12
2023-04-04T13:09:28.638Z,10.62
2023-04-04T13:12:04.299Z,10.92
2023-04-04T13:15:08.526Z,10.77
2023-04-04T13:17:45.979Z,10.80
2023-04-04T13:20:14.577Z,10.96
2023-04-04T13:22:44.032Z,10.92
2023-04-04T13:25:11.879Z,10.82
2023-04-04T13:27:38.469Z,10.96
2023-04-04T13:30:11.545Z,10.53
2023-04-04T13:32:38.342Z,10.89
2023-04-04T13:35:05.287Z,10.93
2023-04-04T13:37:31.665Z,10.96
2023-04-04T13:39:58.050Z,10.94
2023-04-04T13:42:29.960Z,11.17
2023-04-04T13:44:58.916Z,10.66
2023-04-04T13:47:27.435Z,11.03
2023-04-04T13:49:54.949Z,10.89
2023-04-04T13:52:22.103Z,11.04
2023-04-04T13:54:48.656Z,11.00
2023-04-04T13:57:15.259Z,10.59
2023-04-04T13:59:41.728Z,10.82
2023-04-04T14:02:09.140Z,10.65
2023-04-04T14:04:35.872Z,10.82
2023-04-04T14:07:02.374Z,10.61
2023-04-04T14:09:29.378Z,10.71
2023-04-04T14:11:56.227Z,10.58
2023-04-04T14:14:22.841Z,10.83
2023-04-04T14:16:49.201Z,10.65
2023-04-04T14:19:15.704Z,10.70
2023-04-04T14:21:42.222Z,10.31
2023-04-04T14:24:08.917Z,10.38
2023-04-04T14:26:37.704Z,10.43
2023-04-04T14:29:04.082Z,10.42
2023-04-04T14:31:32.513Z,10.17
2023-04-04T14:33:59.086Z,10.38
2023-04-04T14:36:26.090Z,10.23
2023-04-04T14:38:52.701Z,10.32
2023-04-04T14:41:19.203Z,10.27
2023-04-04T14:43:45.757Z,9.99
2023-04-04T14:46:12.401Z,9.81
2023-04-04T14:48:38.883Z,9.81
2023-04-04T14:51:05.666Z,9.99
2023-04-04T14:53:32.041Z,9.94
2023-04-04T14:55:58.716Z,9.83
2023-04-04T14:58:25.354Z,9.80
2023-04-04T15:00:54.070Z,9.77
2023-04-04T15:03:20.527Z,9.80
2023-04-04T15:05:49.606Z,9.75
2023-04-04T15:08:18.626Z,9.69
2023-04-04T15:10:47.469Z,9.80
2023-04-04T15:13:13.854Z,9.80
2023-04-04T15:15:40.709Z,9.82
2023-04-04T15:18:07.458Z,10.01
2023-04-04T15:20:33.856Z,9.92
2023-04-04T15:23:00.239Z,9.91
2023-04-04T15:25:26.625Z,9.79
2023-04-04T15:27:53.000Z,9.80
2023-04-04T15:30:19.548Z,9.81
2023-04-04T15:32:46.210Z,10.10
2023-04-04T15:35:20.660Z,9.96
2023-04-04T15:37:49.102Z,9.95
2023-04-04T15:40:16.379Z,10.06
2023-04-04T15:42:42.889Z,9.84
2023-04-04T15:45:09.811Z,9.77
2023-04-04T15:47:36.428Z,9.94
2023-04-04T15:50:02.983Z,9.91
2023-04-04T15:52:29.463Z,9.35
2023-04-04T15:54:55.910Z,9.43
2023-04-04T15:57:22.458Z,9.65
2023-04-04T15:59:49.654Z,9.56
2023-04-04T16:02:18.699Z,9.45
2023-04-04T16:04:45.136Z,9.48
2023-04-04T16:07:11.617Z,9.31
2023-04-04T16:09:37.994Z,9.34
2023-04-04T16:12:04.553Z,9.32
2023-04-04T16:14:31.027Z,9.33
2023-04-04T16:16:58.898Z,9.24
2023-04-04T16:19:25.476Z,9.20
2023-04-04T16:21:52.653Z,9.09
2023-04-04T16:24:19.105Z,9.34
2023-04-04T16:26:48.925Z,9.21
2023-04-04T16:29:17.617Z,9.26
2023-04-04T16:31:44.620Z,9.16
2023-04-04T16:34:11.139Z,9.27
2023-04-04T16:36:37.685Z,9.27
2023-04-04T16:39:06.336Z,9.04
2023-04-04T16:41:35.021Z,9.04
2023-04-04T16:44:01.445Z,8.80
2023-04-04T16:46:28.109Z,8.58
2023-04-04T16:48:56.999Z,8.68
2023-04-04T16:51:26.466Z,8.71
2023-04-04T16:53:55.113Z,8.80
2023-04-04T16:56:21.552Z,8.84
2023-04-04T16:58:48.320Z,8.75
2023-04-04T17:01:20.687Z,8.68
2023-04-04T17:03:52.158Z,8.85
2023-04-04T17:06:18.582Z,8.60
2023-04-04T17:08:46.665Z,8.47
2023-04-04T17:11:13.274Z,8.80
2023-04-04T17:13:39.770Z,8.64
2023-04-04T17:16:06.521Z,8.37
2023-04-04T17:18:34.176Z,8.72
2023-04-04T17:21:01.400Z,8.70
2023-04-04T17:23:27.730Z,8.60
2023-04-04T17:25:54.130Z,8.59
2023-04-04T17:28:20.469Z,8.59
2023-04-04T17:30:46.935Z,8.42
2023-04-04T17:33:14.616Z,8.41
2023-04-04T17:35:44.164Z,8.33
2023-04-04T17:38:10.902Z,8.25
2023-04-04T17:40:37.498Z,7.98
2023-04-04T17:43:03.829Z,8.32
2023-04-04T17:45:30.300Z,8.10
2023-04-04T17:48:02.053Z,8.13
2023-04-04T17:50:28.515Z,7.80
2023-04-04T17:52:57.072Z,7.85
2023-04-04T17:55:23.934Z,7.85
2023-04-04T17:57:50.581Z,7.77
2023-04-04T18:00:17.216Z,7.61
2023-04-04T18:02:43.866Z,7.68
2023-04-04T18:05:13.309Z,7.55
2023-04-04T18:07:39.954Z,7.55
2023-04-04T18:10:08.424Z,7.49
2023-04-04T18:12:35.904Z,7.63
2023-04-04T18:15:03.086Z,7.51
2023-04-04T18:17:29.741Z,7.57
2023-04-04T18:19:57.525Z,7.66
2023-04-04T18:22:23.890Z,7.68
2023-04-04T18:24:55.129Z,7.49
2023-04-04T18:27:21.563Z,7.53
2023-04-04T18:29:50.556Z,7.29
2023-04-04T18:32:18.240Z,7.15
2023-04-04T18:34:47.084Z,7.24
2023-04-04T18:37:13.644Z,7.39
2023-04-04T18:39:40.061Z,7.32
2023-04-04T18:42:06.474Z,7.22
2023-04-04T18:44:32.979Z,6.61
2023-04-04T18:47:04.225Z,6.71
2023-04-04T18:49:33.545Z,6.54
2023-04-04T18:52:04.957Z,6.47
2023-04-04T18:54:31.493Z,6.34
2023-04-04T18:56:57.824Z,6.33
2023-04-04T18:59:25.989Z,6.52
2023-04-04T19:01:58.044Z,6.49
2023-04-04T19:04:24.748Z,6.60
2023-04-04T19:06:53.448Z,6.57
2023-04-04T19:09:21.196Z,6.57
2023-04-04T19:11:48.595Z,6.10
2023-04-04T19:14:15.335Z,6.06
2023-04-04T19:16:42.687Z,6.12
2023-04-04T19:19:09.225Z,6.03
2023-04-04T19:21:35.633Z,5.95
2023-04-04T19:24:07.663Z,5.96
2023-04-04T19:26:37.259Z,5.97
2023-04-04T19:29:06.822Z,5.89
2023-04-04T19:31:33.173Z,5.78
2023-04-04T19:34:07.984Z,5.98
2023-04-04T19:36:36.842Z,6.04
2023-04-04T19:39:08.000Z,5.97
2023-04-04T19:41:36.564Z,5.89
2023-04-04T19:44:04.704Z,5.95
2023-04-04T19:46:33.101Z,5.95
2023-04-04T19:49:00.584Z,5.94
2023-04-04T19:51:27.849Z,5.80
2023-04-04T19:53:56.513Z,5.73
2023-04-04T19:56:24.872Z,5.73
2023-04-04T19:58:59.824Z,5.85
2023-04-04T20:01:28.402Z,5.86
2023-04-04T20:04:09.378Z,5.79
2023-04-04T20:06:39.979Z,5.69
2023-04-04T20:09:34.567Z,5.65
2023-04-04T20:12:05.506Z,5.61
2023-04-04T20:14:31.973Z,5.60
2023-04-04T20:16:58.336Z,5.62
2023-04-04T20:19:27.614Z,5.58
2023-04-04T20:21:54.099Z,5.58
2023-04-04T20:24:21.397Z,5.50
2023-04-04T20:26:51.396Z,5.43
2023-04-04T20:29:25.391Z,5.49
2023-04-04T20:31:59.854Z,5.37
2023-04-04T20:34:39.198Z,5.35
2023-04-04T20:37:12.325Z,5.34
2023-04-04T20:39:46.339Z,5.37
2023-04-04T20:42:36.070Z,5.38
2023-04-04T20:45:13.212Z,5.28
2023-04-04T20:47:46.800Z,5.39
2023-04-04T20:50:16.571Z,5.23
2023-04-04T20:52:44.325Z,5.14
2023-04-04T20:55:10.713Z,5.15
2023-04-04T20:57:39.680Z,5.28
2023-04-04T21:00:25.413Z,5.31
2023-04-04T21:02:53.131Z,5.45
2023-04-04T21:05:27.974Z,5.29
2023-04-04T21:07:54.380Z,5.27
2023-04-04T21:10:29.615Z,5.11
2023-04-04T21:13:03.091Z,4.74
2023-04-04T21:15:33.464Z,4.67
2023-04-04T21:18:10.965Z,4.48
2023-04-04T21:20:46.902Z,4.86
2023-04-04T21:23:28.575Z,4.59
2023-04-04T21:26:08.079Z,4.82
2023-04-04T21:28:41.894Z,4.67
2023-04-04T21:31:14.143Z,4.64
2023-04-04T21:33:45.792Z,4.52
2023-04-04T21:36:24.572Z,4.47
2023-04-04T21:38:59.203Z,4.33
2023-04-04T21:41:25.780Z,4.29
2023-04-04T21:43:57.373Z,4.36
2023-04-04T21:46:25.902Z,4.16
2023-04-04T21:48:53.456Z,4.19
2023-04-04T21:51:22.393Z,4.27
2023-04-04T21:53:52.146Z,4.21
2023-04-04T21:56:19.447Z,4.28
2023-04-04T21:58:45.823Z,4.01
2023-04-04T22:01:12.414Z,4.00
2023-04-04T22:03:40.621Z,4.27
2023-04-04T22:06:07.351Z,4.15
2023-04-04T22:08:33.771Z,4.01
2023-04-04T22:11:02.219Z,4.07
2023-04-04T22:13:35.616Z,3.97
2023-04-04T22:16:06.092Z,3.77
2023-04-04T22:18:42.652Z,3.75
2023-04-04T22:21:09.556Z,3.58
2023-04-04T22:23:40.001Z,3.57
2023-04-04T22:26:09.218Z,3.42
2023-04-04T22:28:38.582Z,3.58
2023-04-04T22:31:05.954Z,3.39
2023-04-04T22:33:34.063Z,3.45
2023-04-04T22:36:01.551Z,3.49
2023-04-04T22:38:29.074Z,3.49
2023-04-04T22:40:57.281Z,3.56
2023-04-04T22:43:25.686Z,3.58
2023-04-04T22:45:53.019Z,3.54
2023-04-04T22:48:24.094Z,3.52
2023-04-04T22:50:55.788Z,3.44
2023-04-04T22:53:24.744Z,3.61
2023-04-04T22:55:52.993Z,3.48
2023-04-04T22:58:21.608Z,3.63
2023-04-04T23:00:48.236Z,3.51
2023-04-04T23:03:17.354Z,3.68
2023-04-04T23:05:43.782Z,3.75
2023-04-04T23:08:10.774Z,4.08
2023-04-04T23:10:37.146Z,4.24
2023-04-04T23:13:03.681Z,4.36
2023-04-04T23:15:32.307Z,4.41
2023-04-04T23:17:58.969Z,4.47
2023-04-04T23:20:25.664Z,4.39
2023-04-04T23:22:54.806Z,4.28
2023-04-04T23:25:21.281Z,4.21
2023-04-04T23:27:47.809Z,3.97
2023-04-04T23:30:14.254Z,3.99
2023-04-04T23:32:42.090Z,3.87
2023-04-04T23:35:13.829Z,4.02
2023-04-04T23:37:40.385Z,3.93
2023-04-04T23:40:07.616Z,4.13
2023-04-04T23:42:34.095Z,4.12
2023-04-04T23:45:04.611Z,3.99
2023-04-04T23:47:31.066Z,3.95
2023-04-04T23:49:57.589Z,4.03
2023-04-04T23:52:24.136Z,4.12
2023-04-04T23:54:53.091Z,4.25
2023-04-04T23:57:19.596Z,4.22
2023-04-04T23:59:46.099Z,4.19
